KOQT METAR and TAF weather

Enter ICAO airport designator
Station Type Date Time Source
KOQT METAR 2018/08/14 09:53 UTC NOAA

KOQT 140953Z AUTO 00000KT 10SM CLR 19/19 A3005 RMK AO2 SLP161 T01890189


Station Type Date Time Source
KOQT Decoded METAR 2018/08/14 09:53 UTC NOAA

OAK RIDGE, TN, United States (KOQT) 36-01N 84-14W
Aug 14, 2018 - 05:53 AM EDT / 2018.08.14 0953 UTC
Wind: Calm:0
Visibility: 10 mile(s):0
Sky conditions: clear
Temperature: 66.0 F (18.9 C)
Dew Point: 66.0 F (18.9 C)
Relative Humidity: 100%
Pressure (altimeter): 30.05 in. Hg (1017 hPa)
ob: KOQT 140953Z AUTO 00000KT 10SM CLR 19/19 A3005 RMK AO2 SLP161 T01890189
cycle: 10

Station Type Date Time Source
KOQT TAF UTC NOAA

Error!


Example: see airport list